createdAt,value
2023-03-14T00:00:29.369Z,64.86
2023-03-14T00:03:20.206Z,64.17
2023-03-14T00:05:53.878Z,65.23
2023-03-14T00:08:24.630Z,66.40
2023-03-14T00:11:00.189Z,66.74
2023-03-14T00:13:36.785Z,65.45
2023-03-14T00:17:15.084Z,67.20
2023-03-14T00:19:53.502Z,66.42
2023-03-14T00:23:15.187Z,66.72
2023-03-14T00:26:06.247Z,66.66
2023-03-14T00:29:03.061Z,65.72
2023-03-14T00:31:43.218Z,67.13
2023-03-14T00:34:55.300Z,66.01
2023-03-14T00:37:42.431Z,65.81
2023-03-14T02:46:34.889Z,64.78
2023-03-14T02:49:12.036Z,65.09
2023-03-14T02:51:46.691Z,64.99
2023-03-14T02:54:17.691Z,65.72
2023-03-14T02:56:48.689Z,65.32
2023-03-14T02:59:22.339Z,65.24
2023-03-14T03:02:14.879Z,65.25
2023-03-14T03:04:48.201Z,65.63
2023-03-14T03:07:21.083Z,65.44
2023-03-14T03:09:59.959Z,65.64
2023-03-14T03:12:34.157Z,65.95
2023-03-14T03:15:08.011Z,66.44
2023-03-14T03:17:41.347Z,66.47
2023-03-14T03:20:12.020Z,66.08
2023-03-14T03:22:42.372Z,65.94
2023-03-14T03:25:13.781Z,65.84
2023-03-14T03:27:47.304Z,65.95
2023-03-14T03:30:20.607Z,65.81
2023-03-14T03:32:52.178Z,66.02
2023-03-14T03:35:22.827Z,65.88
2023-03-14T03:37:52.265Z,65.40
2023-03-14T03:40:26.847Z,65.57
2023-03-14T03:43:54.449Z,65.04
2023-03-14T03:46:48.348Z,65.39
2023-03-14T03:49:55.723Z,64.86
2023-03-14T03:52:29.587Z,65.60
2023-03-14T03:55:06.569Z,65.11
2023-03-14T03:57:39.527Z,65.23
2023-03-14T04:00:15.674Z,65.11
2023-03-14T04:03:07.734Z,64.92
2023-03-14T04:06:05.653Z,64.74
2023-03-14T04:09:02.164Z,65.02
2023-03-14T04:11:56.358Z,64.65
2023-03-14T04:14:37.457Z,64.76
2023-03-14T04:17:13.756Z,64.53
2023-03-14T04:19:44.058Z,64.31
2023-03-14T04:22:16.754Z,64.25
2023-03-14T04:25:12.595Z,64.29
2023-03-14T04:27:48.143Z,64.45
2023-03-14T04:30:25.625Z,64.43
2023-03-14T04:33:39.512Z,64.35
2023-03-14T04:36:55.757Z,64.46
2023-03-14T04:40:16.326Z,64.47
2023-03-14T04:43:25.115Z,64.40
2023-03-14T04:46:32.902Z,64.55
2023-03-14T04:50:27.810Z,64.82
2023-03-14T04:53:43.763Z,64.86
2023-03-14T04:56:38.287Z,64.62
2023-03-14T04:59:34.465Z,65.16
2023-03-14T05:02:26.485Z,64.94
2023-03-14T05:05:21.779Z,64.75
2023-03-14T05:08:13.013Z,65.04
2023-03-14T05:11:15.247Z,65.32
2023-03-14T05:14:50.603Z,64.91
2023-03-14T05:18:06.907Z,65.94
2023-03-14T05:21:41.778Z,65.67
2023-03-14T05:24:58.432Z,66.24
2023-03-14T05:28:30.776Z,66.85
2023-03-14T05:31:48.854Z,67.74
2023-03-14T05:35:00.789Z,67.27
2023-03-14T05:37:43.005Z,67.12
2023-03-14T05:40:44.517Z,66.98
2023-03-14T05:43:40.462Z,66.51
2023-03-14T05:46:35.077Z,66.52
2023-03-14T05:49:26.710Z,65.82
2023-03-14T05:52:15.891Z,64.80
2023-03-14T05:55:07.158Z,65.51
2023-03-14T05:58:07.956Z,65.38
2023-03-14T06:01:04.359Z,64.78
2023-03-14T06:03:41.072Z,64.53
2023-03-14T06:06:11.224Z,63.96
2023-03-14T06:08:40.680Z,64.13
2023-03-14T06:11:13.425Z,63.81
2023-03-14T06:13:43.635Z,64.32
2023-03-14T06:16:13.309Z,63.88
2023-03-14T06:18:47.833Z,62.80
2023-03-14T06:21:19.270Z,62.49
2023-03-14T06:23:50.318Z,61.12
2023-03-14T06:26:21.134Z,60.63
2023-03-14T06:56:25.246Z,56.92
2023-03-14T06:58:58.312Z,57.82
2023-03-14T07:01:33.980Z,56.66
2023-03-14T07:04:11.947Z,55.79
2023-03-14T07:07:07.130Z,55.32
2023-03-14T07:10:04.052Z,54.27
2023-03-14T07:12:50.734Z,54.53
2023-03-14T07:15:26.925Z,52.40
2023-03-14T07:18:28.130Z,52.86
2023-03-14T07:21:01.653Z,51.25
2023-03-14T07:24:10.727Z,50.51
2023-03-14T07:26:51.730Z,49.86
2023-03-14T07:29:24.684Z,49.78
2023-03-14T07:31:55.030Z,48.83
2023-03-14T07:34:25.987Z,47.87
2023-03-14T07:36:54.559Z,46.28
2023-03-14T07:39:24.054Z,45.88
2023-03-14T07:42:07.329Z,45.10
2023-03-14T07:44:54.384Z,44.51
2023-03-14T07:47:23.914Z,44.02
2023-03-14T07:49:52.042Z,43.38
2023-03-14T07:52:20.021Z,43.67
2023-03-14T07:54:47.947Z,43.89
2023-03-14T07:57:16.136Z,43.34
2023-03-14T07:59:45.018Z,43.27
2023-03-14T08:02:14.778Z,42.43
2023-03-14T08:04:44.910Z,42.20
2023-03-14T08:07:14.471Z,40.75
2023-03-14T08:09:44.182Z,40.59
2023-03-14T08:12:14.116Z,40.42
2023-03-14T08:14:43.525Z,39.83
2023-03-14T08:17:14.115Z,39.42
2023-03-14T08:19:43.578Z,39.75
2023-03-14T08:22:13.319Z,38.20
2023-03-14T08:24:42.260Z,37.41
2023-03-14T08:27:12.480Z,37.68
2023-03-14T08:29:42.832Z,36.83
2023-03-14T08:32:12.227Z,37.44
2023-03-14T08:34:41.903Z,36.71
2023-03-14T08:37:25.270Z,35.94
2023-03-14T08:39:56.212Z,35.96
2023-03-14T08:42:24.751Z,35.94
2023-03-14T08:44:54.561Z,36.14
2023-03-14T08:47:23.589Z,36.11
2023-03-14T08:49:54.855Z,36.49
2023-03-14T08:52:25.562Z,36.19
2023-03-14T08:54:53.782Z,35.62
2023-03-14T08:57:23.109Z,35.57
2023-03-14T08:59:52.198Z,35.78
2023-03-14T09:02:20.472Z,35.67
2023-03-14T09:04:49.213Z,35.35
2023-03-14T09:07:22.142Z,35.83
2023-03-14T09:09:50.736Z,34.88
2023-03-14T09:12:19.289Z,34.75
2023-03-14T09:14:50.841Z,35.00
2023-03-14T09:17:21.322Z,35.22
2023-03-14T09:20:17.015Z,34.47
2023-03-14T09:22:45.742Z,34.53
2023-03-14T09:25:34.505Z,34.60
2023-03-14T09:28:24.303Z,34.53
2023-03-14T09:30:55.124Z,34.68
2023-03-14T09:33:45.498Z,35.13
2023-03-14T09:37:04.951Z,34.83
2023-03-14T09:39:41.515Z,34.90
2023-03-14T09:42:52.919Z,34.63
2023-03-14T09:45:34.497Z,34.96
2023-03-14T09:48:05.478Z,35.33
2023-03-14T09:50:43.804Z,35.34
2023-03-14T09:53:19.641Z,35.26
2023-03-14T09:55:57.891Z,36.20
2023-03-14T09:58:34.195Z,35.49
2023-03-14T10:01:04.735Z,35.23
2023-03-14T10:03:35.795Z,34.39
2023-03-14T10:06:15.747Z,33.77
2023-03-14T10:08:46.642Z,33.86
2023-03-14T10:11:18.061Z,33.04
2023-03-14T10:14:11.437Z,31.18
2023-03-14T10:16:46.656Z,29.60
2023-03-14T10:19:36.938Z,29.17
2023-03-14T10:22:07.221Z,28.99
2023-03-14T10:24:36.743Z,28.18
2023-03-14T10:27:38.436Z,28.88
2023-03-14T10:30:45.579Z,28.20
2023-03-14T10:33:26.397Z,27.73
2023-03-14T10:36:18.995Z,27.07
2023-03-14T10:38:49.180Z,27.26
2023-03-14T10:41:32.654Z,26.97
2023-03-14T10:44:16.150Z,26.73
2023-03-14T10:47:02.012Z,26.34
2023-03-14T10:49:38.831Z,25.34
2023-03-14T10:52:31.167Z,25.27
2023-03-14T10:55:13.930Z,24.87
2023-03-14T10:57:43.552Z,24.31
2023-03-14T11:00:22.118Z,24.67
2023-03-14T11:03:14.124Z,24.09
2023-03-14T11:06:20.698Z,23.66
2023-03-14T11:09:10.560Z,23.90
2023-03-14T11:11:47.874Z,23.65
2023-03-14T11:14:52.885Z,22.61
2023-03-14T11:18:00.568Z,23.81
2023-03-14T11:21:02.105Z,23.08
2023-03-14T11:24:01.361Z,22.20
2023-03-14T11:27:48.662Z,20.61
2023-03-14T11:30:33.380Z,19.42
2023-03-14T11:33:25.169Z,19.33
2023-03-14T11:36:47.740Z,19.07
2023-03-14T11:40:20.052Z,18.28
2023-03-14T11:43:21.507Z,18.12
2023-03-14T11:46:24.989Z,18.01
2023-03-14T11:49:42.121Z,18.02
2023-03-14T11:52:44.434Z,17.99
2023-03-14T11:55:46.028Z,18.80
2023-03-14T11:58:27.732Z,18.70
2023-03-14T12:01:03.553Z,19.22
2023-03-14T12:04:22.152Z,19.45
2023-03-14T12:06:52.557Z,20.07
2023-03-14T12:09:36.372Z,19.50
2023-03-14T12:12:31.912Z,20.51
2023-03-14T12:15:28.164Z,20.26
2023-03-14T12:18:21.612Z,19.99
2023-03-14T12:21:05.951Z,19.86
2023-03-14T12:24:04.425Z,19.80
2023-03-14T12:27:35.779Z,20.16
2023-03-14T12:30:16.966Z,18.58
2023-03-14T12:33:13.184Z,17.45
2023-03-14T12:35:44.258Z,17.49
2023-03-14T12:38:36.759Z,16.93
2023-03-14T12:41:29.979Z,16.80
2023-03-14T12:44:18.016Z,15.05
2023-03-14T12:46:45.886Z,14.18
2023-03-14T12:49:13.908Z,14.38
2023-03-14T12:51:44.785Z,13.36
2023-03-14T12:54:22.257Z,13.74
2023-03-14T12:57:11.431Z,12.87
2023-03-14T12:59:48.914Z,12.77
2023-03-14T13:02:25.168Z,12.49
2023-03-14T13:04:55.449Z,12.39
2023-03-14T13:07:50.712Z,12.22
2023-03-14T13:10:50.147Z,12.11
2023-03-14T13:13:29.418Z,12.11
2023-03-14T13:16:01.311Z,11.51
2023-03-14T13:18:45.476Z,12.04
2023-03-14T13:21:21.195Z,11.59
2023-03-14T13:23:57.196Z,11.41
2023-03-14T13:26:38.503Z,10.72
2023-03-14T13:29:28.270Z,10.87
2023-03-14T13:31:59.818Z,10.93
2023-03-14T13:34:34.514Z,10.72
2023-03-14T13:37:02.854Z,10.44
2023-03-14T13:39:32.615Z,9.91
2023-03-14T13:42:02.845Z,9.99
2023-03-14T13:44:34.798Z,10.06
2023-03-14T13:47:06.481Z,10.39
2023-03-14T13:49:38.567Z,10.16
2023-03-14T13:52:30.105Z,10.38
2023-03-14T13:55:01.147Z,10.44
2023-03-14T13:57:29.392Z,10.14
2023-03-14T14:00:07.716Z,10.38
2023-03-14T14:02:39.124Z,10.48
2023-03-14T14:05:07.768Z,10.13
2023-03-14T14:07:38.786Z,10.27
2023-03-14T14:10:37.841Z,10.73
2023-03-14T14:13:14.208Z,11.46
2023-03-14T14:15:47.860Z,11.43
2023-03-14T14:18:22.195Z,11.63
2023-03-14T14:20:55.514Z,11.88
2023-03-14T14:23:30.092Z,12.25
2023-03-14T14:26:20.714Z,12.69
2023-03-14T14:29:09.037Z,13.31
2023-03-14T14:31:37.720Z,13.66
2023-03-14T14:34:52.407Z,14.38
2023-03-14T14:37:46.483Z,15.67
2023-03-14T14:40:36.876Z,16.20
2023-03-14T14:43:22.754Z,16.14
2023-03-14T14:45:57.169Z,16.65
2023-03-14T14:48:37.552Z,16.02
2023-03-14T14:51:09.055Z,16.39
2023-03-14T14:53:44.041Z,16.70
2023-03-14T14:56:23.405Z,17.07
2023-03-14T14:59:00.997Z,17.12
2023-03-14T15:01:56.266Z,17.81
2023-03-14T15:04:24.912Z,18.54
2023-03-14T15:06:55.695Z,18.84
2023-03-14T15:09:24.123Z,19.27
2023-03-14T15:11:52.355Z,19.58
2023-03-14T15:14:20.488Z,20.59
2023-03-14T15:16:48.777Z,20.57
2023-03-14T15:19:25.447Z,21.02
2023-03-14T15:21:54.673Z,21.54
2023-03-14T15:24:30.277Z,21.88
2023-03-14T15:27:00.207Z,22.11
2023-03-14T15:29:30.681Z,22.49
2023-03-14T15:32:02.328Z,22.76
2023-03-14T15:34:31.777Z,23.00
2023-03-14T15:37:04.246Z,23.14
2023-03-14T15:39:37.733Z,23.54
2023-03-14T15:42:08.007Z,23.93
2023-03-14T15:44:38.851Z,24.67
2023-03-14T15:47:16.390Z,25.09
2023-03-14T15:50:05.324Z,24.88
2023-03-14T15:52:59.038Z,25.25
2023-03-14T15:55:35.436Z,24.88
2023-03-14T15:58:37.390Z,26.50
2023-03-14T16:01:12.997Z,25.89
2023-03-14T16:03:47.050Z,26.52
2023-03-14T16:06:47.723Z,27.65
2023-03-14T16:09:30.359Z,26.54
2023-03-14T16:11:59.898Z,27.02
2023-03-14T16:14:29.464Z,27.20
2023-03-14T16:17:00.424Z,26.90
2023-03-14T16:19:32.496Z,27.12
2023-03-14T16:22:02.203Z,27.44
2023-03-14T16:25:36.990Z,28.19
2023-03-14T16:28:26.953Z,28.78
2023-03-14T16:31:08.523Z,28.44
2023-03-14T16:33:37.992Z,28.90
2023-03-14T16:36:09.448Z,29.08
2023-03-14T16:38:41.394Z,30.20
2023-03-14T16:41:15.632Z,29.51
2023-03-14T16:43:45.608Z,28.65
2023-03-14T16:46:19.086Z,29.19
2023-03-14T16:48:51.463Z,29.32
2023-03-14T16:51:40.853Z,29.78
2023-03-14T16:54:13.121Z,30.08
2023-03-14T16:56:42.213Z,30.46
2023-03-14T16:59:10.389Z,30.22
2023-03-14T17:01:40.997Z,30.07
2023-03-14T17:14:06.503Z,30.52
2023-03-14T17:16:40.933Z,30.92
2023-03-14T17:19:09.129Z,30.75
2023-03-14T18:32:54.305Z,36.13
2023-03-14T18:35:23.775Z,36.18
2023-03-14T18:37:54.254Z,36.14
2023-03-14T18:40:24.528Z,36.55
2023-03-14T18:42:59.458Z,36.66
2023-03-14T18:45:28.461Z,36.63
2023-03-14T18:47:57.832Z,36.83
2023-03-14T18:50:26.852Z,37.48
2023-03-14T18:52:58.504Z,37.43
2023-03-14T18:56:08.025Z,37.75
2023-03-14T18:58:38.552Z,38.23
2023-03-14T19:01:20.257Z,38.37
2023-03-14T19:03:49.505Z,38.28
2023-03-14T19:06:21.541Z,38.12
2023-03-14T19:08:55.351Z,38.45
2023-03-14T19:11:58.652Z,38.51
2023-03-14T19:14:29.847Z,38.88
2023-03-14T19:17:25.741Z,38.82
2023-03-14T19:19:57.434Z,38.80
2023-03-14T19:22:31.477Z,38.89
2023-03-14T19:25:02.539Z,39.22
2023-03-14T19:27:35.048Z,39.20
2023-03-14T19:30:06.399Z,39.41
2023-03-14T19:32:35.968Z,39.45
2023-03-14T19:35:06.711Z,39.55
2023-03-14T19:37:39.900Z,39.62
2023-03-14T19:40:22.615Z,40.11
2023-03-14T19:42:52.326Z,40.21
2023-03-14T19:45:23.389Z,40.46
2023-03-14T19:47:55.704Z,40.75
2023-03-14T19:50:45.989Z,41.81
2023-03-14T19:53:35.060Z,42.42
2023-03-14T19:56:39.535Z,42.87
2023-03-14T19:59:09.362Z,42.71
2023-03-14T20:01:39.940Z,42.35
2023-03-14T20:04:09.732Z,44.11
2023-03-14T20:06:59.853Z,43.99
2023-03-14T20:09:29.956Z,44.08
2023-03-14T20:12:03.727Z,44.06
2023-03-14T20:14:34.083Z,44.61
2023-03-14T20:17:04.141Z,44.72
2023-03-14T20:19:34.175Z,45.20
2023-03-14T20:22:04.493Z,44.96
2023-03-14T20:24:36.320Z,44.20
2023-03-14T20:27:05.835Z,44.49
2023-03-14T20:29:36.173Z,44.52
2023-03-14T20:32:06.787Z,44.18
2023-03-14T20:34:36.877Z,44.10
2023-03-14T20:37:06.121Z,44.46
2023-03-14T20:39:36.052Z,44.89
2023-03-14T20:42:09.723Z,44.21
2023-03-14T20:44:39.561Z,44.10
2023-03-14T20:47:08.843Z,44.67
2023-03-14T20:49:38.409Z,45.00
2023-03-14T20:52:07.831Z,44.66
2023-03-14T20:54:37.040Z,44.70
2023-03-14T20:57:05.444Z,44.85
2023-03-14T20:59:34.823Z,45.05
2023-03-14T21:02:04.768Z,44.60
2023-03-14T21:04:34.011Z,44.62
2023-03-14T21:07:05.384Z,45.37
2023-03-14T21:09:38.334Z,45.92
